Terminal Aerodrome Forecast
Issued by NWS Tuscon, AZ

Home | Current Version | Previous Version | Text Only | Print | Product List | Glossary On
Versions: 1 2 3 4 5 6 7 8 9 10 11 12 13
000
FTUS45 KTWC 290520
TAFDUG
TAF
KDUG 290520Z 2906/3006 25020G30KT P6SM BKN080
     FM291200 30012G20KT P6SM SCT080
     FM291500 32020G30KT P6SM BKN080=

USA.gov is the U.S. government's official web portal to all federal, state and local government web resources and services.